sensor_id;sensor_type;location;lat;lon;timestamp;P1;durP1;ratioP1;P2;durP2;ratioP2
3405;SDS011;10008;48.682;9.016;2024-01-30T00:01:50;20.60;;;18.60;;
3405;SDS011;10008;48.682;9.016;2024-01-30T00:04:15;20.97;;;18.97;;
3405;SDS011;10008;48.682;9.016;2024-01-30T00:06:42;19.90;;;18.00;;
3405;SDS011;10008;48.682;9.016;2024-01-30T00:09:08;20.80;;;18.77;;
3405;SDS011;10008;48.682;9.016;2024-01-30T00:11:35;20.47;;;18.40;;
3405;SDS011;10008;48.682;9.016;2024-01-30T00:14:01;21.57;;;19.57;;
3405;SDS011;10008;48.682;9.016;2024-01-30T00:16:28;22.03;;;19.73;;
3405;SDS011;10008;48.682;9.016;2024-01-30T00:18:54;21.87;;;19.67;;
3405;SDS011;10008;48.682;9.016;2024-01-30T00:21:20;21.77;;;19.47;;
3405;SDS011;10008;48.682;9.016;2024-01-30T00:23:46;22.10;;;19.80;;
3405;SDS011;10008;48.682;9.016;2024-01-30T00:26:12;22.10;;;19.90;;
3405;SDS011;10008;48.682;9.016;2024-01-30T00:28:40;22.37;;;19.77;;
3405;SDS011;10008;48.682;9.016;2024-01-30T00:31:06;22.80;;;18.57;;
3405;SDS011;10008;48.682;9.016;2024-01-30T00:33:32;21.23;;;18.60;;
3405;SDS011;10008;48.682;9.016;2024-01-30T00:35:58;22.83;;;20.53;;
3405;SDS011;10008;48.682;9.016;2024-01-30T00:38:24;20.40;;;18.50;;
3405;SDS011;10008;48.682;9.016;2024-01-30T00:40:49;20.30;;;18.30;;
3405;SDS011;10008;48.682;9.016;2024-01-30T00:43:15;20.40;;;18.40;;
3405;SDS011;10008;48.682;9.016;2024-01-30T00:45:43;19.90;;;17.90;;
3405;SDS011;10008;48.682;9.016;2024-01-30T00:48:08;21.07;;;19.07;;
3405;SDS011;10008;48.682;9.016;2024-01-30T00:50:34;19.03;;;17.10;;
3405;SDS011;10008;48.682;9.016;2024-01-30T00:53:00;20.47;;;18.47;;
3405;SDS011;10008;48.682;9.016;2024-01-30T00:55:26;19.40;;;17.60;;
3405;SDS011;10008;48.682;9.016;2024-01-30T00:57:51;20.37;;;18.27;;
3405;SDS011;10008;48.682;9.016;2024-01-30T01:00:17;19.80;;;17.93;;
3405;SDS011;10008;48.682;9.016;2024-01-30T01:02:43;20.70;;;18.50;;
3405;SDS011;10008;48.682;9.016;2024-01-30T01:05:09;20.13;;;18.10;;
3405;SDS011;10008;48.682;9.016;2024-01-30T01:07:35;19.57;;;17.60;;
3405;SDS011;10008;48.682;9.016;2024-01-30T01:10:01;21.33;;;17.93;;
3405;SDS011;10008;48.682;9.016;2024-01-30T01:12:27;20.03;;;18.17;;
3405;SDS011;10008;48.682;9.016;2024-01-30T01:14:53;20.33;;;18.40;;
3405;SDS011;10008;48.682;9.016;2024-01-30T01:17:19;20.87;;;18.90;;
3405;SDS011;10008;48.682;9.016;2024-01-30T01:19:44;20.70;;;18.70;;
3405;SDS011;10008;48.682;9.016;2024-01-30T01:22:10;20.87;;;18.87;;
3405;SDS011;10008;48.682;9.016;2024-01-30T01:24:36;21.57;;;19.47;;
3405;SDS011;10008;48.682;9.016;2024-01-30T01:27:02;19.93;;;18.03;;
3405;SDS011;10008;48.682;9.016;2024-01-30T01:29:28;21.90;;;19.17;;
3405;SDS011;10008;48.682;9.016;2024-01-30T01:31:57;20.40;;;18.50;;
3405;SDS011;10008;48.682;9.016;2024-01-30T01:34:23;21.97;;;18.30;;
3405;SDS011;10008;48.682;9.016;2024-01-30T01:36:49;19.80;;;17.73;;
3405;SDS011;10008;48.682;9.016;2024-01-30T01:39:16;19.23;;;17.43;;
3405;SDS011;10008;48.682;9.016;2024-01-30T01:41:42;21.23;;;18.93;;
3405;SDS011;10008;48.682;9.016;2024-01-30T01:44:08;20.70;;;18.70;;
3405;SDS011;10008;48.682;9.016;2024-01-30T01:46:34;20.47;;;18.47;;
3405;SDS011;10008;48.682;9.016;2024-01-30T01:49:00;21.47;;;19.57;;
3405;SDS011;10008;48.682;9.016;2024-01-30T01:51:29;21.63;;;19.50;;
3405;SDS011;10008;48.682;9.016;2024-01-30T01:53:57;20.73;;;18.73;;
3405;SDS011;10008;48.682;9.016;2024-01-30T01:56:24;21.17;;;19.07;;
3405;SDS011;10008;48.682;9.016;2024-01-30T01:58:51;20.60;;;18.70;;
3405;SDS011;10008;48.682;9.016;2024-01-30T02:01:19;20.63;;;18.57;;
3405;SDS011;10008;48.682;9.016;2024-01-30T02:03:46;20.33;;;18.40;;
3405;SDS011;10008;48.682;9.016;2024-01-30T02:06:15;20.73;;;18.63;;
3405;SDS011;10008;48.682;9.016;2024-01-30T02:08:41;21.17;;;19.03;;
3405;SDS011;10008;48.682;9.016;2024-01-30T02:11:08;20.57;;;18.47;;
3405;SDS011;10008;48.682;9.016;2024-01-30T02:13:35;19.70;;;17.80;;
3405;SDS011;10008;48.682;9.016;2024-01-30T02:16:01;20.70;;;18.67;;
3405;SDS011;10008;48.682;9.016;2024-01-30T02:18:27;20.30;;;18.33;;
3405;SDS011;10008;48.682;9.016;2024-01-30T02:20:53;20.00;;;18.10;;
3405;SDS011;10008;48.682;9.016;2024-01-30T02:23:22;21.97;;;19.70;;
3405;SDS011;10008;48.682;9.016;2024-01-30T02:25:50;22.10;;;19.97;;
3405;SDS011;10008;48.682;9.016;2024-01-30T02:28:18;20.00;;;18.10;;
3405;SDS011;10008;48.682;9.016;2024-01-30T02:30:45;20.50;;;18.47;;
3405;SDS011;10008;48.682;9.016;2024-01-30T02:33:11;20.20;;;18.23;;
3405;SDS011;10008;48.682;9.016;2024-01-30T02:35:38;19.50;;;17.60;;
3405;SDS011;10008;48.682;9.016;2024-01-30T02:38:04;19.20;;;17.40;;
3405;SDS011;10008;48.682;9.016;2024-01-30T02:40:30;21.00;;;18.73;;
3405;SDS011;10008;48.682;9.016;2024-01-30T02:42:57;19.13;;;17.23;;
3405;SDS011;10008;48.682;9.016;2024-01-30T02:45:24;20.80;;;18.90;;
3405;SDS011;10008;48.682;9.016;2024-01-30T02:47:50;20.50;;;18.60;;
3405;SDS011;10008;48.682;9.016;2024-01-30T02:50:15;19.30;;;17.50;;
3405;SDS011;10008;48.682;9.016;2024-01-30T02:52:41;18.80;;;17.00;;
3405;SDS011;10008;48.682;9.016;2024-01-30T02:55:10;19.43;;;17.60;;
3405;SDS011;10008;48.682;9.016;2024-01-30T02:57:37;19.97;;;18.07;;
3405;SDS011;10008;48.682;9.016;2024-01-30T03:00:03;19.23;;;17.27;;
3405;SDS011;10008;48.682;9.016;2024-01-30T03:02:31;19.90;;;17.80;;
3405;SDS011;10008;48.682;9.016;2024-01-30T03:04:59;20.37;;;18.20;;
3405;SDS011;10008;48.682;9.016;2024-01-30T03:07:24;19.00;;;17.20;;
3405;SDS011;10008;48.682;9.016;2024-01-30T03:09:50;18.90;;;16.90;;
3405;SDS011;10008;48.682;9.016;2024-01-30T03:12:16;18.50;;;16.80;;
3405;SDS011;10008;48.682;9.016;2024-01-30T03:14:42;20.10;;;18.10;;
3405;SDS011;10008;48.682;9.016;2024-01-30T03:17:08;18.87;;;17.07;;
3405;SDS011;10008;48.682;9.016;2024-01-30T03:19:33;19.90;;;18.00;;
3405;SDS011;10008;48.682;9.016;2024-01-30T03:21:59;19.73;;;17.83;;
3405;SDS011;10008;48.682;9.016;2024-01-30T03:24:25;19.73;;;17.87;;
3405;SDS011;10008;48.682;9.016;2024-01-30T03:26:51;19.23;;;17.43;;
3405;SDS011;10008;48.682;9.016;2024-01-30T03:29:16;19.67;;;17.80;;
3405;SDS011;10008;48.682;9.016;2024-01-30T03:31:42;18.63;;;16.70;;
3405;SDS011;10008;48.682;9.016;2024-01-30T03:34:08;18.70;;;17.10;;
3405;SDS011;10008;48.682;9.016;2024-01-30T03:36:34;19.70;;;17.80;;
3405;SDS011;10008;48.682;9.016;2024-01-30T03:39:00;19.73;;;17.93;;
3405;SDS011;10008;48.682;9.016;2024-01-30T03:41:26;19.27;;;17.57;;
3405;SDS011;10008;48.682;9.016;2024-01-30T03:43:52;20.20;;;18.30;;
3405;SDS011;10008;48.682;9.016;2024-01-30T03:46:17;20.67;;;18.80;;
3405;SDS011;10008;48.682;9.016;2024-01-30T03:48:44;19.87;;;18.03;;
3405;SDS011;10008;48.682;9.016;2024-01-30T03:51:10;20.10;;;18.20;;
3405;SDS011;10008;48.682;9.016;2024-01-30T03:53:43;18.77;;;17.03;;
3405;SDS011;10008;48.682;9.016;2024-01-30T03:56:11;19.60;;;17.77;;
3405;SDS011;10008;48.682;9.016;2024-01-30T03:58:40;20.63;;;18.43;;
3405;SDS011;10008;48.682;9.016;2024-01-30T04:01:07;20.27;;;18.27;;
3405;SDS011;10008;48.682;9.016;2024-01-30T04:03:33;21.50;;;18.93;;
3405;SDS011;10008;48.682;9.016;2024-01-30T04:05:58;21.03;;;19.10;;
3405;SDS011;10008;48.682;9.016;2024-01-30T04:08:24;20.73;;;18.83;;
3405;SDS011;10008;48.682;9.016;2024-01-30T04:10:50;20.53;;;18.63;;
3405;SDS011;10008;48.682;9.016;2024-01-30T04:13:15;20.70;;;18.60;;
3405;SDS011;10008;48.682;9.016;2024-01-30T04:15:41;19.83;;;18.03;;
3405;SDS011;10008;48.682;9.016;2024-01-30T04:18:07;19.03;;;17.30;;
3405;SDS011;10008;48.682;9.016;2024-01-30T04:20:33;19.47;;;17.67;;
3405;SDS011;10008;48.682;9.016;2024-01-30T04:22:58;19.50;;;17.70;;
3405;SDS011;10008;48.682;9.016;2024-01-30T04:25:24;18.87;;;17.03;;
3405;SDS011;10008;48.682;9.016;2024-01-30T04:27:50;19.57;;;17.77;;
3405;SDS011;10008;48.682;9.016;2024-01-30T04:30:16;19.43;;;17.57;;
3405;SDS011;10008;48.682;9.016;2024-01-30T04:32:42;20.57;;;18.47;;
3405;SDS011;10008;48.682;9.016;2024-01-30T04:35:09;20.90;;;18.13;;
3405;SDS011;10008;48.682;9.016;2024-01-30T04:37:34;18.87;;;17.13;;
3405;SDS011;10008;48.682;9.016;2024-01-30T04:40:00;20.57;;;18.30;;
3405;SDS011;10008;48.682;9.016;2024-01-30T04:42:26;20.27;;;18.20;;
3405;SDS011;10008;48.682;9.016;2024-01-30T04:44:52;20.07;;;18.17;;
3405;SDS011;10008;48.682;9.016;2024-01-30T04:47:17;20.40;;;18.40;;
3405;SDS011;10008;48.682;9.016;2024-01-30T04:49:43;22.77;;;18.30;;
3405;SDS011;10008;48.682;9.016;2024-01-30T04:52:09;19.87;;;17.80;;
3405;SDS011;10008;48.682;9.016;2024-01-30T04:54:35;20.77;;;18.77;;
3405;SDS011;10008;48.682;9.016;2024-01-30T04:57:01;19.83;;;17.90;;
3405;SDS011;10008;48.682;9.016;2024-01-30T04:59:27;20.33;;;18.33;;
3405;SDS011;10008;48.682;9.016;2024-01-30T05:01:54;20.73;;;18.63;;
3405;SDS011;10008;48.682;9.016;2024-01-30T05:04:20;19.73;;;17.90;;
3405;SDS011;10008;48.682;9.016;2024-01-30T05:06:47;20.80;;;18.70;;
3405;SDS011;10008;48.682;9.016;2024-01-30T05:09:13;20.53;;;18.43;;
3405;SDS011;10008;48.682;9.016;2024-01-30T05:11:39;22.73;;;19.40;;
3405;SDS011;10008;48.682;9.016;2024-01-30T05:14:05;20.90;;;18.80;;
3405;SDS011;10008;48.682;9.016;2024-01-30T05:16:32;22.30;;;20.00;;
3405;SDS011;10008;48.682;9.016;2024-01-30T05:18:58;22.07;;;19.87;;
3405;SDS011;10008;48.682;9.016;2024-01-30T05:21:24;20.97;;;18.90;;
3405;SDS011;10008;48.682;9.016;2024-01-30T05:23:50;21.20;;;19.20;;
3405;SDS011;10008;48.682;9.016;2024-01-30T05:26:15;21.07;;;19.03;;
3405;SDS011;10008;48.682;9.016;2024-01-30T05:28:41;20.20;;;18.30;;
3405;SDS011;10008;48.682;9.016;2024-01-30T05:31:09;21.10;;;19.00;;
3405;SDS011;10008;48.682;9.016;2024-01-30T05:33:35;22.03;;;19.83;;
3405;SDS011;10008;48.682;9.016;2024-01-30T05:36:01;22.07;;;19.80;;
3405;SDS011;10008;48.682;9.016;2024-01-30T05:38:27;22.07;;;19.80;;
3405;SDS011;10008;48.682;9.016;2024-01-30T05:40:57;21.97;;;19.60;;
3405;SDS011;10008;48.682;9.016;2024-01-30T05:43:23;21.60;;;19.40;;
3405;SDS011;10008;48.682;9.016;2024-01-30T05:45:49;23.20;;;19.27;;
3405;SDS011;10008;48.682;9.016;2024-01-30T05:48:15;21.70;;;19.60;;
3405;SDS011;10008;48.682;9.016;2024-01-30T05:50:41;20.90;;;18.87;;
3405;SDS011;10008;48.682;9.016;2024-01-30T05:53:07;21.13;;;18.97;;
3405;SDS011;10008;48.682;9.016;2024-01-30T05:55:33;21.20;;;19.00;;
3405;SDS011;10008;48.682;9.016;2024-01-30T05:57:58;21.50;;;19.30;;
3405;SDS011;10008;48.682;9.016;2024-01-30T06:00:24;24.27;;;20.00;;
3405;SDS011;10008;48.682;9.016;2024-01-30T06:02:50;26.50;;;19.93;;
3405;SDS011;10008;48.682;9.016;2024-01-30T06:05:15;21.97;;;19.67;;
3405;SDS011;10008;48.682;9.016;2024-01-30T06:07:41;22.90;;;20.50;;
3405;SDS011;10008;48.682;9.016;2024-01-30T06:10:07;22.10;;;19.90;;
3405;SDS011;10008;48.682;9.016;2024-01-30T06:12:34;20.53;;;18.53;;
3405;SDS011;10008;48.682;9.016;2024-01-30T06:15:00;21.43;;;19.33;;
3405;SDS011;10008;48.682;9.016;2024-01-30T06:17:26;26.40;;;21.60;;
3405;SDS011;10008;48.682;9.016;2024-01-30T06:19:52;22.10;;;19.80;;
3405;SDS011;10008;48.682;9.016;2024-01-30T06:22:17;20.80;;;18.77;;
3405;SDS011;10008;48.682;9.016;2024-01-30T06:24:43;19.73;;;17.90;;
3405;SDS011;10008;48.682;9.016;2024-01-30T06:27:15;19.70;;;17.90;;
3405;SDS011;10008;48.682;9.016;2024-01-30T06:29:43;19.70;;;17.80;;
3405;SDS011;10008;48.682;9.016;2024-01-30T06:32:08;20.83;;;18.83;;
3405;SDS011;10008;48.682;9.016;2024-01-30T06:34:34;21.70;;;19.60;;
3405;SDS011;10008;48.682;9.016;2024-01-30T06:37:00;20.10;;;18.20;;
3405;SDS011;10008;48.682;9.016;2024-01-30T06:39:26;19.80;;;18.00;;
3405;SDS011;10008;48.682;9.016;2024-01-30T06:41:52;20.57;;;18.57;;
3405;SDS011;10008;48.682;9.016;2024-01-30T06:44:19;19.80;;;18.10;;
3405;SDS011;10008;48.682;9.016;2024-01-30T06:46:44;19.87;;;17.97;;
3405;SDS011;10008;48.682;9.016;2024-01-30T06:49:10;19.90;;;18.00;;
3405;SDS011;10008;48.682;9.016;2024-01-30T06:51:36;19.80;;;18.00;;
3405;SDS011;10008;48.682;9.016;2024-01-30T06:54:01;20.80;;;18.90;;
3405;SDS011;10008;48.682;9.016;2024-01-30T06:56:27;20.73;;;18.63;;
3405;SDS011;10008;48.682;9.016;2024-01-30T06:58:53;20.70;;;18.60;;
3405;SDS011;10008;48.682;9.016;2024-01-30T07:01:19;21.80;;;19.60;;
3405;SDS011;10008;48.682;9.016;2024-01-30T07:03:45;22.57;;;20.37;;
3405;SDS011;10008;48.682;9.016;2024-01-30T07:06:11;21.77;;;19.47;;
3405;SDS011;10008;48.682;9.016;2024-01-30T07:08:37;21.30;;;19.10;;
3405;SDS011;10008;48.682;9.016;2024-01-30T07:11:04;21.53;;;19.53;;
3405;SDS011;10008;48.682;9.016;2024-01-30T07:13:31;21.63;;;19.43;;
3405;SDS011;10008;48.682;9.016;2024-01-30T07:15:57;21.13;;;18.93;;
3405;SDS011;10008;48.682;9.016;2024-01-30T07:18:23;23.97;;;19.60;;
3405;SDS011;10008;48.682;9.016;2024-01-30T07:20:49;22.27;;;19.90;;
3405;SDS011;10008;48.682;9.016;2024-01-30T07:23:15;20.97;;;18.87;;
3405;SDS011;10008;48.682;9.016;2024-01-30T07:25:46;21.10;;;19.00;;
3405;SDS011;10008;48.682;9.016;2024-01-30T07:28:15;21.50;;;19.20;;
3405;SDS011;10008;48.682;9.016;2024-01-30T07:30:43;20.77;;;18.87;;
3405;SDS011;10008;48.682;9.016;2024-01-30T07:33:09;20.03;;;18.13;;
3405;SDS011;10008;48.682;9.016;2024-01-30T07:35:35;19.83;;;17.93;;
3405;SDS011;10008;48.682;9.016;2024-01-30T07:38:01;20.47;;;18.43;;
3405;SDS011;10008;48.682;9.016;2024-01-30T07:40:27;21.83;;;19.80;;
3405;SDS011;10008;48.682;9.016;2024-01-30T07:42:53;20.00;;;18.10;;
3405;SDS011;10008;48.682;9.016;2024-01-30T07:45:19;20.47;;;18.47;;
3405;SDS011;10008;48.682;9.016;2024-01-30T07:47:49;20.53;;;18.43;;
3405;SDS011;10008;48.682;9.016;2024-01-30T07:50:15;20.47;;;18.50;;
3405;SDS011;10008;48.682;9.016;2024-01-30T07:52:42;20.53;;;18.50;;
3405;SDS011;10008;48.682;9.016;2024-01-30T07:55:08;19.80;;;18.00;;
3405;SDS011;10008;48.682;9.016;2024-01-30T07:57:34;20.33;;;18.33;;
3405;SDS011;10008;48.682;9.016;2024-01-30T08:00:00;20.13;;;18.13;;
3405;SDS011;10008;48.682;9.016;2024-01-30T08:02:26;20.07;;;17.77;;
3405;SDS011;10008;48.682;9.016;2024-01-30T08:04:52;20.20;;;18.20;;
3405;SDS011;10008;48.682;9.016;2024-01-30T08:07:17;18.90;;;17.00;;
3405;SDS011;10008;48.682;9.016;2024-01-30T08:09:43;19.73;;;17.63;;
3405;SDS011;10008;48.682;9.016;2024-01-30T08:12:09;20.37;;;18.27;;
3405;SDS011;10008;48.682;9.016;2024-01-30T08:14:35;20.30;;;18.27;;
3405;SDS011;10008;48.682;9.016;2024-01-30T08:17:00;20.03;;;18.03;;
3405;SDS011;10008;48.682;9.016;2024-01-30T08:19:26;22.00;;;19.60;;
3405;SDS011;10008;48.682;9.016;2024-01-30T08:21:52;21.53;;;18.47;;
3405;SDS011;10008;48.682;9.016;2024-01-30T08:24:18;26.27;;;18.23;;
3405;SDS011;10008;48.682;9.016;2024-01-30T08:26:43;20.67;;;18.57;;
3405;SDS011;10008;48.682;9.016;2024-01-30T08:29:09;20.37;;;18.20;;
3405;SDS011;10008;48.682;9.016;2024-01-30T08:31:35;21.90;;;19.60;;
3405;SDS011;10008;48.682;9.016;2024-01-30T08:34:01;20.90;;;18.80;;
3405;SDS011;10008;48.682;9.016;2024-01-30T08:36:27;21.57;;;19.47;;
3405;SDS011;10008;48.682;9.016;2024-01-30T08:38:52;21.70;;;19.33;;
3405;SDS011;10008;48.682;9.016;2024-01-30T08:41:18;22.40;;;20.00;;
3405;SDS011;10008;48.682;9.016;2024-01-30T08:43:44;22.80;;;20.37;;
3405;SDS011;10008;48.682;9.016;2024-01-30T08:46:10;23.70;;;21.20;;
3405;SDS011;10008;48.682;9.016;2024-01-30T08:48:36;25.87;;;21.57;;
3405;SDS011;10008;48.682;9.016;2024-01-30T08:51:02;25.00;;;22.30;;
3405;SDS011;10008;48.682;9.016;2024-01-30T08:53:28;30.80;;;24.20;;
3405;SDS011;10008;48.682;9.016;2024-01-30T08:55:54;27.00;;;21.53;;
3405;SDS011;10008;48.682;9.016;2024-01-30T08:58:19;28.63;;;22.03;;
3405;SDS011;10008;48.682;9.016;2024-01-30T09:00:45;32.40;;;23.93;;
3405;SDS011;10008;48.682;9.016;2024-01-30T09:03:11;26.80;;;21.27;;
3405;SDS011;10008;48.682;9.016;2024-01-30T09:05:36;25.10;;;20.20;;
3405;SDS011;10008;48.682;9.016;2024-01-30T09:08:02;23.80;;;19.80;;
3405;SDS011;10008;48.682;9.016;2024-01-30T09:10:28;28.33;;;22.50;;
3405;SDS011;10008;48.682;9.016;2024-01-30T09:12:54;24.80;;;21.23;;
3405;SDS011;10008;48.682;9.016;2024-01-30T09:15:19;22.80;;;20.17;;
3405;SDS011;10008;48.682;9.016;2024-01-30T09:17:45;23.80;;;21.30;;
3405;SDS011;10008;48.682;9.016;2024-01-30T09:20:11;23.83;;;20.57;;
3405;SDS011;10008;48.682;9.016;2024-01-30T09:22:37;24.07;;;20.70;;
3405;SDS011;10008;48.682;9.016;2024-01-30T09:25:03;22.03;;;19.80;;
3405;SDS011;10008;48.682;9.016;2024-01-30T09:27:29;26.27;;;19.90;;
3405;SDS011;10008;48.682;9.016;2024-01-30T09:29:56;24.80;;;20.60;;
3405;SDS011;10008;48.682;9.016;2024-01-30T09:32:21;22.40;;;20.10;;
3405;SDS011;10008;48.682;9.016;2024-01-30T09:34:47;27.23;;;19.87;;
3405;SDS011;10008;48.682;9.016;2024-01-30T09:37:13;22.63;;;20.33;;
3405;SDS011;10008;48.682;9.016;2024-01-30T09:39:40;22.50;;;20.20;;
3405;SDS011;10008;48.682;9.016;2024-01-30T09:42:18;23.33;;;19.60;;
3405;SDS011;10008;48.682;9.016;2024-01-30T09:44:51;23.60;;;20.93;;
3405;SDS011;10008;48.682;9.016;2024-01-30T09:47:18;21.40;;;19.37;;
3405;SDS011;10008;48.682;9.016;2024-01-30T09:49:44;20.93;;;18.07;;
3405;SDS011;10008;48.682;9.016;2024-01-30T09:52:11;20.23;;;18.03;;
3405;SDS011;10008;48.682;9.016;2024-01-30T09:54:37;21.10;;;17.97;;
3405;SDS011;10008;48.682;9.016;2024-01-30T09:57:04;22.17;;;17.93;;
3405;SDS011;10008;48.682;9.016;2024-01-30T09:59:30;22.13;;;17.53;;
3405;SDS011;10008;48.682;9.016;2024-01-30T10:01:57;19.97;;;17.80;;
3405;SDS011;10008;48.682;9.016;2024-01-30T10:04:23;21.80;;;17.50;;
3405;SDS011;10008;48.682;9.016;2024-01-30T10:06:48;19.80;;;17.90;;
3405;SDS011;10008;48.682;9.016;2024-01-30T10:09:15;29.73;;;24.43;;
3405;SDS011;10008;48.682;9.016;2024-01-30T10:11:41;23.77;;;21.27;;
3405;SDS011;10008;48.682;9.016;2024-01-30T10:14:07;19.67;;;17.77;;
3405;SDS011;10008;48.682;9.016;2024-01-30T10:16:34;24.10;;;20.60;;
3405;SDS011;10008;48.682;9.016;2024-01-30T10:19:00;17.30;;;15.53;;
3405;SDS011;10008;48.682;9.016;2024-01-30T10:21:25;17.53;;;15.73;;
3405;SDS011;10008;48.682;9.016;2024-01-30T10:23:51;20.30;;;17.53;;
3405;SDS011;10008;48.682;9.016;2024-01-30T10:26:17;21.37;;;16.20;;
3405;SDS011;10008;48.682;9.016;2024-01-30T10:28:43;34.40;;;16.60;;
3405;SDS011;10008;48.682;9.016;2024-01-30T10:31:09;20.97;;;16.30;;
3405;SDS011;10008;48.682;9.016;2024-01-30T10:33:34;27.50;;;15.50;;
3405;SDS011;10008;48.682;9.016;2024-01-30T10:36:04;20.33;;;14.93;;
3405;SDS011;10008;48.682;9.016;2024-01-30T10:38:31;19.40;;;15.47;;
3405;SDS011;10008;48.682;9.016;2024-01-30T10:40:58;18.47;;;15.43;;
3405;SDS011;10008;48.682;9.016;2024-01-30T10:43:31;17.93;;;15.17;;
3405;SDS011;10008;48.682;9.016;2024-01-30T10:46:09;20.93;;;15.03;;
3405;SDS011;10008;48.682;9.016;2024-01-30T10:48:42;14.90;;;13.50;;
3405;SDS011;10008;48.682;9.016;2024-01-30T10:51:10;15.70;;;14.30;;
3405;SDS011;10008;48.682;9.016;2024-01-30T10:53:37;15.00;;;13.50;;
3405;SDS011;10008;48.682;9.016;2024-01-30T10:56:04;15.13;;;13.53;;
3405;SDS011;10008;48.682;9.016;2024-01-30T10:58:31;14.00;;;12.70;;
3405;SDS011;10008;48.682;9.016;2024-01-30T11:00:56;14.77;;;13.37;;
3405;SDS011;10008;48.682;9.016;2024-01-30T11:03:24;14.23;;;12.83;;
3405;SDS011;10008;48.682;9.016;2024-01-30T11:05:50;13.87;;;12.47;;
3405;SDS011;10008;48.682;9.016;2024-01-30T11:08:26;13.30;;;12.00;;
3405;SDS011;10008;48.682;9.016;2024-01-30T11:10:57;13.13;;;11.93;;
3405;SDS011;10008;48.682;9.016;2024-01-30T11:13:30;14.90;;;11.93;;
3405;SDS011;10008;48.682;9.016;2024-01-30T11:16:05;13.57;;;12.30;;
3405;SDS011;10008;48.682;9.016;2024-01-30T11:18:32;14.17;;;12.07;;
3405;SDS011;10008;48.682;9.016;2024-01-30T11:20:59;12.83;;;11.73;;
3405;SDS011;10008;48.682;9.016;2024-01-30T11:23:26;12.90;;;11.60;;
3405;SDS011;10008;48.682;9.016;2024-01-30T11:25:52;13.17;;;12.07;;
3405;SDS011;10008;48.682;9.016;2024-01-30T11:28:19;13.57;;;12.27;;
3405;SDS011;10008;48.682;9.016;2024-01-30T11:30:46;13.17;;;11.97;;
3405;SDS011;10008;48.682;9.016;2024-01-30T11:33:13;13.40;;;12.30;;
3405;SDS011;10008;48.682;9.016;2024-01-30T11:35:43;13.23;;;12.03;;
3405;SDS011;10008;48.682;9.016;2024-01-30T11:38:13;14.93;;;13.43;;
3405;SDS011;10008;48.682;9.016;2024-01-30T11:40:39;13.97;;;12.67;;
3405;SDS011;10008;48.682;9.016;2024-01-30T11:43:07;13.30;;;12.20;;
3405;SDS011;10008;48.682;9.016;2024-01-30T11:45:34;13.73;;;12.40;;
3405;SDS011;10008;48.682;9.016;2024-01-30T11:48:01;13.13;;;12.03;;
3405;SDS011;10008;48.682;9.016;2024-01-30T11:50:32;12.67;;;11.57;;
3405;SDS011;10008;48.682;9.016;2024-01-30T11:52:59;12.77;;;11.57;;
3405;SDS011;10008;48.682;9.016;2024-01-30T11:55:25;12.27;;;11.27;;
3405;SDS011;10008;48.682;9.016;2024-01-30T11:57:51;13.47;;;11.97;;
3405;SDS011;10008;48.682;9.016;2024-01-30T12:00:20;12.27;;;11.27;;
3405;SDS011;10008;48.682;9.016;2024-01-30T12:02:49;12.83;;;11.23;;
3405;SDS011;10008;48.682;9.016;2024-01-30T12:05:16;13.20;;;11.90;;
3405;SDS011;10008;48.682;9.016;2024-01-30T12:07:44;12.40;;;11.30;;
3405;SDS011;10008;48.682;9.016;2024-01-30T12:10:11;12.73;;;11.63;;
3405;SDS011;10008;48.682;9.016;2024-01-30T12:12:39;12.63;;;11.53;;
3405;SDS011;10008;48.682;9.016;2024-01-30T12:15:06;13.40;;;11.93;;
3405;SDS011;10008;48.682;9.016;2024-01-30T12:17:33;13.50;;;12.10;;
3405;SDS011;10008;48.682;9.016;2024-01-30T12:20:12;13.70;;;12.30;;
3405;SDS011;10008;48.682;9.016;2024-01-30T12:22:44;14.17;;;12.70;;
3405;SDS011;10008;48.682;9.016;2024-01-30T12:25:11;13.23;;;11.70;;
3405;SDS011;10008;48.682;9.016;2024-01-30T12:27:39;11.90;;;11.00;;
3405;SDS011;10008;48.682;9.016;2024-01-30T12:30:07;13.03;;;10.97;;
3405;SDS011;10008;48.682;9.016;2024-01-30T12:32:36;13.27;;;11.50;;
3405;SDS011;10008;48.682;9.016;2024-01-30T12:35:06;13.07;;;11.60;;
3405;SDS011;10008;48.682;9.016;2024-01-30T12:37:36;12.50;;;11.50;;
3405;SDS011;10008;48.682;9.016;2024-01-30T12:40:02;13.10;;;11.80;;
3405;SDS011;10008;48.682;9.016;2024-01-30T12:42:28;12.53;;;11.43;;
3405;SDS011;10008;48.682;9.016;2024-01-30T12:44:54;12.80;;;11.70;;
3405;SDS011;10008;48.682;9.016;2024-01-30T12:47:22;13.10;;;11.80;;
3405;SDS011;10008;48.682;9.016;2024-01-30T12:49:48;12.47;;;11.47;;
3405;SDS011;10008;48.682;9.016;2024-01-30T12:52:14;12.93;;;11.83;;
3405;SDS011;10008;48.682;9.016;2024-01-30T12:54:41;12.87;;;11.77;;
3405;SDS011;10008;48.682;9.016;2024-01-30T12:57:07;13.13;;;12.03;;
3405;SDS011;10008;48.682;9.016;2024-01-30T12:59:33;13.63;;;12.30;;
3405;SDS011;10008;48.682;9.016;2024-01-30T13:02:00;13.20;;;11.93;;
3405;SDS011;10008;48.682;9.016;2024-01-30T13:04:27;12.07;;;11.07;;
3405;SDS011;10008;48.682;9.016;2024-01-30T13:06:53;13.17;;;12.07;;
3405;SDS011;10008;48.682;9.016;2024-01-30T13:09:19;13.13;;;11.93;;
3405;SDS011;10008;48.682;9.016;2024-01-30T13:11:45;13.00;;;11.80;;
3405;SDS011;10008;48.682;9.016;2024-01-30T13:14:11;12.60;;;11.50;;
3405;SDS011;10008;48.682;9.016;2024-01-30T13:16:37;12.83;;;11.80;;
3405;SDS011;10008;48.682;9.016;2024-01-30T13:19:02;13.27;;;12.17;;
3405;SDS011;10008;48.682;9.016;2024-01-30T13:21:28;13.00;;;12.00;;
3405;SDS011;10008;48.682;9.016;2024-01-30T13:23:54;12.83;;;11.83;;
3405;SDS011;10008;48.682;9.016;2024-01-30T13:26:20;13.10;;;12.00;;
3405;SDS011;10008;48.682;9.016;2024-01-30T13:28:46;12.90;;;11.80;;
3405;SDS011;10008;48.682;9.016;2024-01-30T13:31:14;12.37;;;11.37;;
3405;SDS011;10008;48.682;9.016;2024-01-30T13:33:41;15.10;;;12.37;;
3405;SDS011;10008;48.682;9.016;2024-01-30T13:36:10;12.03;;;11.03;;
3405;SDS011;10008;48.682;9.016;2024-01-30T13:38:36;13.10;;;12.00;;
3405;SDS011;10008;48.682;9.016;2024-01-30T13:41:02;12.90;;;11.80;;
3405;SDS011;10008;48.682;9.016;2024-01-30T13:43:28;12.97;;;11.67;;
3405;SDS011;10008;48.682;9.016;2024-01-30T13:45:54;12.93;;;11.93;;
3405;SDS011;10008;48.682;9.016;2024-01-30T13:48:20;12.50;;;11.40;;
3405;SDS011;10008;48.682;9.016;2024-01-30T13:50:47;12.00;;;11.00;;
3405;SDS011;10008;48.682;9.016;2024-01-30T13:53:13;12.33;;;11.33;;
3405;SDS011;10008;48.682;9.016;2024-01-30T13:55:39;12.47;;;11.47;;
3405;SDS011;10008;48.682;9.016;2024-01-30T13:58:05;13.57;;;12.27;;
3405;SDS011;10008;48.682;9.016;2024-01-30T14:00:31;12.60;;;11.60;;
3405;SDS011;10008;48.682;9.016;2024-01-30T14:02:58;12.67;;;11.63;;
3405;SDS011;10008;48.682;9.016;2024-01-30T14:05:25;12.97;;;11.77;;
3405;SDS011;10008;48.682;9.016;2024-01-30T14:07:53;13.33;;;12.03;;
3405;SDS011;10008;48.682;9.016;2024-01-30T14:10:19;12.67;;;11.60;;
3405;SDS011;10008;48.682;9.016;2024-01-30T14:12:45;13.13;;;11.70;;
3405;SDS011;10008;48.682;9.016;2024-01-30T14:15:13;13.03;;;11.77;;
3405;SDS011;10008;48.682;9.016;2024-01-30T14:17:48;13.20;;;11.90;;
3405;SDS011;10008;48.682;9.016;2024-01-30T14:20:15;13.97;;;12.53;;
3405;SDS011;10008;48.682;9.016;2024-01-30T14:22:43;13.13;;;12.03;;
3405;SDS011;10008;48.682;9.016;2024-01-30T14:25:09;13.13;;;12.10;;
3405;SDS011;10008;48.682;9.016;2024-01-30T14:27:35;13.10;;;11.93;;
3405;SDS011;10008;48.682;9.016;2024-01-30T14:30:01;13.00;;;11.80;;